createdAt,value
2023-02-16T00:01:00.001Z,-0.25
2023-02-16T00:06:01.765Z,-0.20
2023-02-16T00:11:21.910Z,-0.54
2023-02-16T00:16:25.117Z,-0.66
2023-02-16T00:21:27.050Z,-0.58
2023-02-16T00:26:31.339Z,-0.52
2023-02-16T00:31:33.219Z,-0.63
2023-02-16T00:36:35.081Z,-0.69
2023-02-16T00:41:52.028Z,-0.53
2023-02-16T00:46:53.796Z,-0.27
2023-02-16T00:51:55.813Z,-0.27
2023-02-16T00:56:57.830Z,-0.66
2023-02-16T01:01:59.643Z,-0.84
2023-02-16T01:07:19.869Z,-0.76
2023-02-16T01:12:22.119Z,-0.76
2023-02-16T01:17:24.713Z,-1.06
2023-02-16T01:22:33.344Z,-1.07
2023-02-16T01:27:38.144Z,-1.05
2023-02-16T01:32:40.407Z,-1.36
2023-02-16T01:37:42.806Z,-1.45
2023-02-16T01:42:52.105Z,-1.36
2023-02-16T01:48:01.728Z,-1.14
2023-02-16T01:53:23.747Z,-1.27
2023-02-16T01:58:46.144Z,-1.05
2023-02-16T02:04:06.377Z,-1.23
2023-02-16T02:09:20.225Z,-1.49
2023-02-16T02:14:32.223Z,-1.63
2023-02-16T02:20:09.627Z,-1.76
2023-02-16T02:25:17.190Z,-1.75
2023-02-16T02:30:40.793Z,-1.42
2023-02-16T02:35:58.456Z,-1.49
2023-02-16T02:41:22.275Z,-1.57
2023-02-16T02:46:30.372Z,-1.60
2023-02-16T02:51:33.895Z,-1.63
2023-02-16T02:57:03.910Z,-1.89
2023-02-16T03:02:06.355Z,-1.97
2023-02-16T03:07:09.968Z,-1.72
2023-02-16T03:12:32.064Z,-1.94
2023-02-16T03:17:55.779Z,-1.78
2023-02-16T03:23:16.806Z,-1.92
2023-02-16T03:28:39.493Z,-1.37
2023-02-16T03:33:41.619Z,-1.64
2023-02-16T03:38:43.334Z,-1.54
2023-02-16T03:43:45.001Z,-1.71
2023-02-16T03:48:46.693Z,-1.54
2023-02-16T03:53:48.353Z,-1.78
2023-02-16T03:58:50.006Z,-1.52
2023-02-16T04:03:51.788Z,-1.61
2023-02-16T04:08:54.548Z,-1.59
2023-02-16T04:13:56.303Z,-1.76
2023-02-16T04:18:58.014Z,-1.76
2023-02-16T04:24:00.040Z,-1.64
2023-02-16T04:29:01.707Z,-1.94
2023-02-16T04:34:03.413Z,-1.80
2023-02-16T04:39:05.397Z,-2.00
2023-02-16T04:44:07.166Z,-1.86
2023-02-16T04:49:08.828Z,-1.92
2023-02-16T04:54:10.472Z,-1.96
2023-02-16T04:59:12.606Z,-2.13
2023-02-16T05:04:14.536Z,-2.04
2023-02-16T05:09:16.289Z,-1.80
2023-02-16T05:14:42.781Z,-1.96
2023-02-16T05:19:47.240Z,-1.69
2023-02-16T05:24:49.413Z,-1.77
2023-02-16T05:29:51.741Z,-1.65
2023-02-16T05:34:53.566Z,-1.84
2023-02-16T05:39:55.251Z,-1.98
2023-02-16T05:44:56.910Z,-1.86
2023-02-16T05:49:58.596Z,-1.86
2023-02-16T05:55:00.311Z,-1.88
2023-02-16T06:00:03.438Z,-1.86
2023-02-16T06:05:06.646Z,-1.95
2023-02-16T06:10:09.081Z,-2.04
2023-02-16T06:15:11.860Z,-2.05
2023-02-16T06:20:13.573Z,-2.13
2023-02-16T06:25:15.383Z,-1.93
2023-02-16T06:30:17.378Z,-1.96
2023-02-16T06:35:19.057Z,-1.99
2023-02-16T06:40:21.463Z,-2.09
2023-02-16T06:45:23.211Z,-2.21
2023-02-16T06:50:24.891Z,-1.84
2023-02-16T06:55:26.617Z,-1.70
2023-02-16T07:00:29.723Z,-1.43
2023-02-16T07:05:31.439Z,-1.54
2023-02-16T07:10:47.711Z,-1.60
2023-02-16T07:15:51.215Z,-1.32
2023-02-16T07:20:53.119Z,-1.12
2023-02-16T07:25:54.854Z,-1.33
2023-02-16T07:30:56.632Z,-1.32
2023-02-16T07:35:58.587Z,-1.22
2023-02-16T07:41:00.379Z,-1.02
2023-02-16T07:46:02.287Z,-0.83
2023-02-16T07:51:04.989Z,-0.75
2023-02-16T07:56:06.983Z,-0.57
2023-02-16T08:01:11.062Z,-0.36
2023-02-16T08:06:13.689Z,0.03
2023-02-16T08:11:17.150Z,0.22
2023-02-16T08:16:24.682Z,0.49
2023-02-16T08:21:32.595Z,0.60
2023-02-16T08:26:37.819Z,0.71
2023-02-16T08:31:39.955Z,0.75
2023-02-16T08:36:44.632Z,1.39
2023-02-16T08:41:48.279Z,1.31
2023-02-16T08:46:51.030Z,1.35
2023-02-16T08:51:55.670Z,1.80
2023-02-16T08:56:59.827Z,2.18
2023-02-16T09:02:01.544Z,2.17
2023-02-16T09:07:03.464Z,2.39
2023-02-16T09:12:05.580Z,2.47
2023-02-16T09:17:07.360Z,2.67
2023-02-16T09:22:09.034Z,2.93
2023-02-16T09:27:11.611Z,3.44
2023-02-16T09:32:14.644Z,3.67
2023-02-16T09:37:16.247Z,3.50
2023-02-16T09:42:24.428Z,3.92
2023-02-16T09:47:32.105Z,4.09
2023-02-16T09:52:42.826Z,3.94
2023-02-16T09:57:55.731Z,3.82
2023-02-16T10:03:32.237Z,4.07
2023-02-16T10:08:45.468Z,4.13
2023-02-16T10:13:54.065Z,4.11
2023-02-16T10:18:58.856Z,4.20
2023-02-16T10:24:05.192Z,4.53
2023-02-16T10:29:12.890Z,4.97
2023-02-16T10:34:23.445Z,5.33
2023-02-16T10:39:35.133Z,5.89
2023-02-16T10:44:43.856Z,6.65
2023-02-16T10:49:47.894Z,7.23
2023-02-16T10:54:49.536Z,7.88
2023-02-16T10:59:51.395Z,8.86
2023-02-16T11:04:54.784Z,9.32
2023-02-16T11:10:00.897Z,9.72
2023-02-16T11:15:18.764Z,9.53
2023-02-16T11:20:31.812Z,10.15
2023-02-16T11:25:33.429Z,10.68
2023-02-16T11:30:41.386Z,11.53
2023-02-16T11:35:45.797Z,12.08
2023-02-16T11:40:52.755Z,12.61
2023-02-16T11:46:20.178Z,13.14
2023-02-16T11:51:34.901Z,13.44
2023-02-16T11:56:36.593Z,14.15
2023-02-16T12:02:08.607Z,13.89
2023-02-16T12:07:28.812Z,13.75
2023-02-16T12:12:48.904Z,12.94
2023-02-16T12:18:02.710Z,12.67
2023-02-16T12:23:18.471Z,12.66
2023-02-16T12:28:41.678Z,12.35
2023-02-16T12:34:01.569Z,11.94
2023-02-16T12:39:12.279Z,11.89
2023-02-16T12:44:25.026Z,11.93
2023-02-16T12:49:49.379Z,11.85
2023-02-16T12:55:11.025Z,11.43
2023-02-16T13:00:33.194Z,11.38
2023-02-16T13:05:38.004Z,11.47
2023-02-16T13:11:05.615Z,11.40
2023-02-16T13:16:24.167Z,11.13
2023-02-16T13:21:50.989Z,11.35
2023-02-16T13:27:18.174Z,11.53
2023-02-16T13:32:48.697Z,11.22
2023-02-16T13:37:59.928Z,11.47
2023-02-16T13:43:30.831Z,11.59
2023-02-16T13:48:47.432Z,11.57
2023-02-16T13:53:52.296Z,11.70
2023-02-16T13:58:54.298Z,11.56
2023-02-16T14:03:55.904Z,11.39
2023-02-16T14:09:13.174Z,11.55
2023-02-16T14:14:53.017Z,11.27
2023-02-16T14:19:54.630Z,10.98
2023-02-16T14:25:00.000Z,11.22
2023-02-16T14:30:03.382Z,11.15
2023-02-16T14:35:15.699Z,11.04
2023-02-16T14:40:38.704Z,10.70
2023-02-16T14:45:49.340Z,10.89
2023-02-16T14:51:28.940Z,10.44
2023-02-16T14:56:59.570Z,10.13
2023-02-16T15:02:21.280Z,10.16
2023-02-16T15:07:26.120Z,9.99
2023-02-16T15:12:32.651Z,9.45
2023-02-16T15:17:45.809Z,9.40
2023-02-16T15:22:56.134Z,8.65
2023-02-16T15:28:16.908Z,8.62
2023-02-16T15:33:24.623Z,8.11
2023-02-16T15:38:28.122Z,7.90
2023-02-16T15:43:35.845Z,7.56
2023-02-16T15:48:38.252Z,7.17
2023-02-16T15:53:52.260Z,7.55
2023-02-16T15:58:55.890Z,6.94
2023-02-16T16:03:57.571Z,6.62
2023-02-16T16:08:59.810Z,6.34
2023-02-16T16:14:06.144Z,6.18
2023-02-16T16:19:18.442Z,6.40
2023-02-16T16:24:38.757Z,6.27
2023-02-16T16:29:44.100Z,5.88
2023-02-16T16:34:46.168Z,5.76
2023-02-16T16:40:22.088Z,5.42
2023-02-16T16:45:36.652Z,5.28
2023-02-16T16:50:39.866Z,5.05
2023-02-16T16:55:41.575Z,4.92
2023-02-16T17:00:45.728Z,4.96
2023-02-16T17:05:47.455Z,4.86
2023-02-16T17:10:49.166Z,4.60
2023-02-16T17:16:02.353Z,4.67
2023-02-16T17:21:05.302Z,4.46
2023-02-16T17:26:07.523Z,4.39
2023-02-16T17:31:10.983Z,4.28
2023-02-16T17:36:15.526Z,4.07
2023-02-16T17:41:29.391Z,3.98
2023-02-16T17:46:32.216Z,4.24
2023-02-16T17:51:36.295Z,4.25
2023-02-16T17:56:41.827Z,4.01
2023-02-16T18:01:45.029Z,3.92
2023-02-16T18:06:48.573Z,3.74
2023-02-16T18:11:51.237Z,3.69
2023-02-16T18:16:53.578Z,3.79
2023-02-16T18:21:55.845Z,3.71
2023-02-16T18:26:57.570Z,3.57
2023-02-16T18:32:03.212Z,3.66
2023-02-16T18:37:04.893Z,3.64
2023-02-16T18:42:06.972Z,3.53
2023-02-16T18:47:11.956Z,3.53
2023-02-16T18:52:13.547Z,3.51
2023-02-16T18:57:15.356Z,3.65
2023-02-16T19:02:17.005Z,3.60
2023-02-16T19:07:19.380Z,3.44
2023-02-16T19:12:21.100Z,3.32
2023-02-16T19:17:22.688Z,3.43
2023-02-16T19:22:25.120Z,3.53
2023-02-16T19:27:26.914Z,3.58
2023-02-16T19:32:29.632Z,3.44
2023-02-16T19:37:32.061Z,3.45
2023-02-16T19:42:33.758Z,3.41
2023-02-16T19:47:35.938Z,3.56
2023-02-16T19:52:38.432Z,3.76
2023-02-16T19:57:42.406Z,3.73
2023-02-16T20:02:44.368Z,3.61
2023-02-16T20:07:46.964Z,4.30
2023-02-16T20:12:49.142Z,5.70
2023-02-16T20:18:01.069Z,7.17
2023-02-16T20:23:02.858Z,7.38
2023-02-16T20:28:04.745Z,7.75
2023-02-16T20:33:06.397Z,7.89
2023-02-16T20:38:08.159Z,7.95
2023-02-16T20:43:10.362Z,7.97
2023-02-16T20:48:12.498Z,7.96
2023-02-16T20:53:14.396Z,8.11
2023-02-16T20:58:17.228Z,8.24
2023-02-16T21:03:19.052Z,8.30
2023-02-16T21:08:21.051Z,8.42
2023-02-16T21:13:22.989Z,8.25
2023-02-16T21:18:27.169Z,8.42
2023-02-16T21:23:30.083Z,8.56
2023-02-16T21:28:32.116Z,8.58
2023-02-16T21:33:34.091Z,8.54
2023-02-16T21:38:36.752Z,8.48
2023-02-16T21:43:38.750Z,8.54
2023-02-16T21:48:52.941Z,8.56
2023-02-16T21:53:55.392Z,8.47
2023-02-16T21:58:57.702Z,8.66
2023-02-16T22:04:00.559Z,8.65
2023-02-16T22:09:06.726Z,8.59
2023-02-16T22:14:08.445Z,8.76
2023-02-16T22:19:15.301Z,8.75
2023-02-16T22:24:18.406Z,8.85
2023-02-16T22:29:20.098Z,8.98
2023-02-16T22:34:22.551Z,9.02
2023-02-16T22:39:24.279Z,9.05
2023-02-16T22:44:25.989Z,9.00
2023-02-16T22:49:27.673Z,8.81
2023-02-16T22:54:29.271Z,9.05
2023-02-16T22:59:30.954Z,9.09
2023-02-16T23:04:32.686Z,8.92
2023-02-16T23:09:34.605Z,8.95
2023-02-16T23:14:37.671Z,8.74
2023-02-16T23:19:40.206Z,8.80
2023-02-16T23:24:41.882Z,8.70
2023-02-16T23:29:43.545Z,8.87
2023-02-16T23:34:45.260Z,8.90
2023-02-16T23:39:47.011Z,8.76
2023-02-16T23:44:48.754Z,8.91
2023-02-16T23:49:50.556Z,9.01
2023-02-16T23:54:52.203Z,8.99
2023-02-16T23:59:53.824Z,8.81
